Menu Close Menu
Station Historical Data
Daily Summary for December 8, 2017 Units:  Both    English   Metric
« Previous Day
Next Day »
Daily Weekly Monthly Yearly Custom
  High: Low: Average:
Temperature: 42.6 °F /  5.9 °C 32.4 °F /  0.2 °C 34.5 °F /  1.4 °C
Dew Point: 32.9 °F /  0.5 °C 30.4 °F /  -0.9 °C 31 °F /  -0.6 °C
Humidity: 93% 63% 87%
Wind Speed: 3.5mph /  5.6km/h - 0.7mph /  1.1km/h
Wind Gust: 3.5mph /  5.6km/h - -
Wind- - South
Pressure: 30.14 in /  1020.5 hPa 29.96 in /  1014.4 hPa -
Precipitation: 0.16 in /  4.06 mm    
Historical Graphs
 
 
Tabular Data for December 8, 2017
Time Temperature Dew Point Pressure Wind Wind Speed Wind Gust Humidity Rainfall Rate (Hourly) solar Conditions
00:02 42.6 °F /  5.9 °C 30.9 °F /  -0.6 °C 30.14in /  1020.5hPa WSW 1.2mph /  1.9km/h   63% 0.00in /  0mm WeatherDisplay:10.37 W/m2 CLR
00:07 42.6 °F /  5.9 °C 31.3 °F /  -0.4 °C 30.14in /  1020.5hPa Calm     64% 0.00in /  0mm WeatherDisplay:10.37 W/m2 CLR
00:12 42.5 °F /  5.8 °C 30.8 °F /  -0.7 °C 30.13in /  1020.2hPa Calm     63% 0.00in /  0mm WeatherDisplay:10.37 W/m2 CLR
00:17 42.5 °F /  5.8 °C 30.8 °F /  -0.7 °C 30.13in /  1020.2hPa Calm     63% 0.00in /  0mm WeatherDisplay:10.37 W/m2 CLR
00:22 42.5 °F /  5.8 °C 30.8 °F /  -0.7 °C 30.12in /  1019.9hPa Calm     63% 0.00in /  0mm WeatherDisplay:10.37 W/m2 CLR
00:27 42.4 °F /  5.8 °C 31.1 °F /  -0.5 °C 30.12in /  1019.9hPa Calm     64% 0.00in /  0mm WeatherDisplay:10.37 W/m2 CLR
00:33 42.3 °F /  5.7 °C 31.0 °F /  -0.6 °C 30.11in /  1019.5hPa North 1.2mph /  1.9km/h 1.2mph /  1.9km/h 64% 0.00in /  0mm WeatherDisplay:10.37 W/m2 CLR
00:38 42.4 °F /  5.8 °C 30.7 °F /  -0.7 °C 30.11in /  1019.5hPa NNE 1.2mph /  1.9km/h   63% 0.00in /  0mm WeatherDisplay:10.37 W/m2 CLR
00:43 42.3 °F /  5.7 °C 30.6 °F /  -0.8 °C 30.11in /  1019.5hPa South 1.2mph /  1.9km/h   63% 0.00in /  0mm WeatherDisplay:10.37 W/m2 CLR
00:48 42.3 °F /  5.7 °C 31.0 °F /  -0.6 °C 30.10in /  1019.2hPa SE 1.2mph /  1.9km/h   64% 0.00in /  0mm WeatherDisplay:10.37 W/m2 CLR
00:53 42.3 °F /  5.7 °C 31.0 °F /  -0.6 °C 30.08in /  1018.5hPa East 1.2mph /  1.9km/h   64% 0.00in /  0mm WeatherDisplay:10.37 W/m2 CLR
00:58 42.2 °F /  5.7 °C 30.5 °F /  -0.8 °C 30.09in /  1018.8hPa East 1.2mph /  1.9km/h   63% 0.00in /  0mm WeatherDisplay:10.37 W/m2 CLR
01:03 42.2 °F /  5.7 °C 31.3 °F /  -0.4 °C 30.09in /  1018.8hPa SE 1.2mph /  1.9km/h   65% 0.00in /  0mm WeatherDisplay:10.37 W/m2 CLR
01:08 42.2 °F /  5.7 °C 30.9 °F /  -0.6 °C 30.10in /  1019.2hPa Calm     64% 0.00in /  0mm WeatherDisplay:10.37 W/m2 CLR
01:13 42.1 °F /  5.6 °C 30.4 °F /  -0.9 °C 30.10in /  1019.2hPa East 1.2mph /  1.9km/h   63% 0.00in /  0mm WeatherDisplay:10.37 W/m2 -RA
01:19 42.1 °F /  5.6 °C 31.2 °F /  -0.4 °C 30.09in /  1018.8hPa East 1.2mph /  1.9km/h 1.2mph /  1.9km/h 65% 0.00in /  0mm WeatherDisplay:10.37 W/m2 -RA
01:24 42.0 °F /  5.6 °C 31.1 °F /  -0.5 °C 30.07in /  1018.2hPa SSW 1.2mph /  1.9km/h   65% 0.00in /  0mm WeatherDisplay:10.37 W/m2 -RA
01:34 41.9 °F /  5.5 °C 30.6 °F /  -0.8 °C 30.10in /  1019.2hPa West 1.2mph /  1.9km/h   64% 0.00in /  0mm WeatherDisplay:10.37 W/m2 SCT
01:39 41.9 °F /  5.5 °C 30.6 °F /  -0.8 °C 30.09in /  1018.8hPa WNW 1.2mph /  1.9km/h   64% 0.00in /  0mm WeatherDisplay:10.37 W/m2 SCT
01:44 41.9 °F /  5.5 °C 30.6 °F /  -0.8 °C 30.10in /  1019.2hPa Calm     64% 0.00in /  0mm WeatherDisplay:10.37 W/m2 -RA
01:49 41.8 °F /  5.4 °C 30.9 °F /  -0.6 °C 30.11in /  1019.5hPa Calm     65% 0.00in /  0mm WeatherDisplay:10.37 W/m2 -RA
01:54 41.7 °F /  5.4 °C 30.8 °F /  -0.7 °C 30.09in /  1018.8hPa WNW 1.2mph /  1.9km/h   65% 0.00in /  0mm WeatherDisplay:10.37 W/m2 -RA
01:59 41.7 °F /  5.4 °C 31.5 °F /  -0.3 °C 30.11in /  1019.5hPa West 1.2mph /  1.9km/h   67% 0.00in /  0mm WeatherDisplay:10.37 W/m2 -RA
02:04 41.6 °F /  5.3 °C 30.7 °F /  -0.7 °C 30.12in /  1019.9hPa WNW 1.2mph /  1.9km/h   65% 0.00in /  0mm WeatherDisplay:10.37 W/m2 BKN
02:09 41.6 °F /  5.3 °C 31.4 °F /  -0.3 °C 30.12in /  1019.9hPa NW 1.2mph /  1.9km/h   67% 0.00in /  0mm WeatherDisplay:10.37 W/m2 BKN
02:15 41.6 °F /  5.3 °C 31.4 °F /  -0.3 °C 30.12in /  1019.9hPa Calm     67% 0.00in /  0mm WeatherDisplay:10.37 W/m2 BKN
02:20 41.5 °F /  5.3 °C 31.0 °F /  -0.6 °C 30.14in /  1020.5hPa Calm   1.0mph /  1.6km/h 66% 0.00in /  0mm WeatherDisplay:10.37 W/m2 BKN
02:25 41.4 °F /  5.2 °C 30.9 °F /  -0.6 °C 30.13in /  1020.2hPa Calm   1.0mph /  1.6km/h 66% 0.00in /  0mm WeatherDisplay:10.37 W/m2 BKN
02:30 41.3 °F /  5.2 °C 31.2 °F /  -0.4 °C 30.13in /  1020.2hPa West 1.2mph /  1.9km/h   67% 0.00in /  0mm WeatherDisplay:10.37 W/m2 BKN
02:35 41.2 °F /  5.1 °C 30.7 °F /  -0.7 °C 30.13in /  1020.2hPa West 2.3mph /  3.7km/h 2.3mph /  3.7km/h 66% 0.00in /  0mm WeatherDisplay:10.37 W/m2 BKN
02:40 41.1 °F /  5.1 °C 31.0 °F /  -0.6 °C 30.14in /  1020.5hPa NW 2.3mph /  3.7km/h   67% 0.00in /  0mm WeatherDisplay:10.37 W/m2 BKN
02:45 40.9 °F /  4.9 °C 30.8 °F /  -0.7 °C 30.14in /  1020.5hPa North 2.3mph /  3.7km/h 2.3mph /  3.7km/h 67% 0.00in /  0mm WeatherDisplay:10.37 W/m2 BKN
02:50 40.8 °F /  4.9 °C 31.1 °F /  -0.5 °C 30.13in /  1020.2hPa East 1.2mph /  1.9km/h   68% 0.00in /  0mm WeatherDisplay:10.37 W/m2 BKN
02:55 40.7 °F /  4.8 °C 31.0 °F /  -0.6 °C 30.13in /  1020.2hPa East 1.2mph /  1.9km/h   68% 0.00in /  0mm WeatherDisplay:10.37 W/m2 BKN
03:00 40.5 °F /  4.7 °C 30.8 °F /  -0.7 °C 30.11in /  1019.5hPa East 1.2mph /  1.9km/h   68% 0.00in /  0mm WeatherDisplay:10.37 W/m2 BKN
03:11 40.1 °F /  4.5 °C 31.1 °F /  -0.5 °C 30.12in /  1019.9hPa South 3.5mph /  5.6km/h 3.5mph /  5.6km/h 70% 0.00in /  0mm WeatherDisplay:10.37 W/m2 CLR
03:21 39.3 °F /  4.1 °C 31.7 °F /  -0.2 °C 30.12in /  1019.9hPa South 3.5mph /  5.6km/h 3.5mph /  5.6km/h 74% 0.00in /  0mm WeatherDisplay:10.37 W/m2 CLR
03:26 39.0 °F /  3.9 °C 32.1 °F /  0.1 °C 30.12in /  1019.9hPa SSE 2.3mph /  3.7km/h 2.3mph /  3.7km/h 76% 0.00in /  0mm WeatherDisplay:10.37 W/m2 CLR
03:41 38.0 °F /  3.3 °C 32.1 °F /  0.1 °C 30.11in /  1019.5hPa ESE 3.5mph /  5.6km/h   79% 0.00in /  0mm WeatherDisplay:10.37 W/m2 CLR
03:46 37.9 °F /  3.3 °C 32.3 °F /  0.2 °C 30.11in /  1019.5hPa ESE 3.5mph /  5.6km/h   80% 0.00in /  0mm WeatherDisplay:10.37 W/m2 CLR
03:51 37.7 °F /  3.2 °C 32.4 °F /  0.2 °C 30.12in /  1019.9hPa SSE 3.5mph /  5.6km/h 3.5mph /  5.6km/h 81% 0.00in /  0mm WeatherDisplay:10.37 W/m2 CLR
03:56 37.6 °F /  3.1 °C 32.3 °F /  0.2 °C 30.12in /  1019.9hPa SE 3.5mph /  5.6km/h   81% 0.00in /  0mm WeatherDisplay:10.37 W/m2 CLR
04:17 37.2 °F /  2.9 °C 32.5 °F /  0.3 °C 30.11in /  1019.5hPa East 3.5mph /  5.6km/h 3.5mph /  5.6km/h 83% 0.00in /  0mm WeatherDisplay:10.37 W/m2 -RA
04:22 37.0 °F /  2.8 °C 32.3 °F /  0.2 °C 30.11in /  1019.5hPa SE 2.3mph /  3.7km/h   83% 0.00in /  0mm WeatherDisplay:10.37 W/m2 -RA
04:27 36.9 °F /  2.7 °C 32.5 °F /  0.3 °C 30.12in /  1019.9hPa ESE 2.3mph /  3.7km/h 2.3mph /  3.7km/h 84% 0.00in /  0mm WeatherDisplay:10.37 W/m2 -RA
04:32 36.8 °F /  2.7 °C 32.7 °F /  0.4 °C 30.11in /  1019.5hPa East 2.3mph /  3.7km/h   85% 0.00in /  0mm WeatherDisplay:10.37 W/m2 -RA
04:37 36.8 °F /  2.7 °C 32.7 °F /  0.4 °C 30.11in /  1019.5hPa SW 1.2mph /  1.9km/h   85% 0.00in /  0mm WeatherDisplay:10.37 W/m2 OVC
04:42 36.6 °F /  2.6 °C 32.5 °F /  0.3 °C 30.12in /  1019.9hPa WSW 1.2mph /  1.9km/h 1.2mph /  1.9km/h 85% 0.00in /  0mm WeatherDisplay:10.37 W/m2 OVC
04:47 36.6 °F /  2.6 °C 32.5 °F /  0.3 °C 30.12in /  1019.9hPa WSW 1.2mph /  1.9km/h   85% 0.00in /  0mm WeatherDisplay:10.37 W/m2 OVC
04:57 36.5 °F /  2.5 °C 32.7 °F /  0.4 °C 30.11in /  1019.5hPa SW 1.2mph /  1.9km/h   86% 0.00in /  0mm WeatherDisplay:10.37 W/m2 OVC
05:02 36.4 °F /  2.4 °C 32.6 °F /  0.3 °C 30.11in /  1019.5hPa SSW 1.2mph /  1.9km/h   86% 0.00in /  0mm WeatherDisplay:10.37 W/m2 BKN
05:07 36.3 °F /  2.4 °C 32.5 °F /  0.3 °C 30.11in /  1019.5hPa SW 1.2mph /  1.9km/h   86% 0.00in /  0mm WeatherDisplay:10.37 W/m2 BKN
05:17 36.2 °F /  2.3 °C 32.7 °F /  0.4 °C 30.09in /  1018.8hPa West 1.2mph /  1.9km/h   87% 0.00in /  0mm WeatherDisplay:10.37 W/m2 BKN
05:22 36.1 °F /  2.3 °C 32.6 °F /  0.3 °C 30.09in /  1018.8hPa West 1.2mph /  1.9km/h   87% 0.00in /  0mm WeatherDisplay:10.37 W/m2 BKN
05:28 36.1 °F /  2.3 °C 32.6 °F /  0.3 °C 30.09in /  1018.8hPa Calm     87% 0.00in /  0mm WeatherDisplay:10.37 W/m2 BKN
05:33 36.1 °F /  2.3 °C 32.9 °F /  0.5 °C 30.09in /  1018.8hPa ESE 1.2mph /  1.9km/h   88% 0.00in /  0mm WeatherDisplay:10.37 W/m2 BKN
05:38 36.0 °F /  2.2 °C 32.8 °F /  0.4 °C 30.10in /  1019.2hPa WSW 1.2mph /  1.9km/h   88% 0.00in /  0mm WeatherDisplay:10.37 W/m2 BKN
05:43 36.0 °F /  2.2 °C 32.8 °F /  0.4 °C 30.09in /  1018.8hPa Calm     88% 0.00in /  0mm WeatherDisplay:10.37 W/m2 SCT
05:48 35.9 °F /  2.2 °C 32.4 °F /  0.2 °C 30.09in /  1018.8hPa SW 2.3mph /  3.7km/h 2.3mph /  3.7km/h 87% 0.00in /  0mm WeatherDisplay:10.37 W/m2 SCT
05:53 35.9 °F /  2.2 °C 32.4 °F /  0.2 °C 30.09in /  1018.8hPa ESE 2.3mph /  3.7km/h 2.3mph /  3.7km/h 87% 0.00in /  0mm WeatherDisplay:10.37 W/m2 SCT
05:59 35.8 °F /  2.1 °C 32.6 °F /  0.3 °C 30.09in /  1018.8hPa SW 2.3mph /  3.7km/h   88% 0.00in /  0mm WeatherDisplay:10.37 W/m2 SCT
06:04 35.8 °F /  2.1 °C 32.6 °F /  0.3 °C 30.08in /  1018.5hPa West 1.2mph /  1.9km/h 1.2mph /  1.9km/h 88% 0.00in /  0mm WeatherDisplay:10.37 W/m2 BKN
06:09 35.7 °F /  2.1 °C 32.5 °F /  0.3 °C 30.08in /  1018.5hPa WSW 1.2mph /  1.9km/h   88% 0.00in /  0mm WeatherDisplay:10.37 W/m2 BKN
06:14 35.6 °F /  2 °C 32.4 °F /  0.2 °C 30.07in /  1018.2hPa SE 1.2mph /  1.9km/h 1.2mph /  1.9km/h 88% 0.00in /  0mm WeatherDisplay:10.37 W/m2 BKN
06:19 35.5 °F /  1.9 °C 32.3 °F /  0.2 °C 30.08in /  1018.5hPa WNW 1.2mph /  1.9km/h   88% 0.00in /  0mm WeatherDisplay:10.37 W/m2 BKN
06:24 35.5 °F /  1.9 °C 32.3 °F /  0.2 °C 30.07in /  1018.2hPa NE 1.2mph /  1.9km/h   88% 0.00in /  0mm WeatherDisplay:10.37 W/m2 BKN
06:29 35.4 °F /  1.9 °C 32.2 °F /  0.1 °C 30.08in /  1018.5hPa ESE 1.2mph /  1.9km/h   88% 0.00in /  0mm WeatherDisplay:10.37 W/m2 BKN
06:34 35.4 °F /  1.9 °C 32.2 °F /  0.1 °C 30.09in /  1018.8hPa ESE 1.2mph /  1.9km/h   88% 0.00in /  0mm WeatherDisplay:10.37 W/m2 BKN
06:39 35.2 °F /  1.8 °C 32.0 °F /  0 °C 30.08in /  1018.5hPa ESE 2.3mph /  3.7km/h   88% 0.00in /  0mm WeatherDisplay:10.37 W/m2 BKN
06:44 35.1 °F /  1.7 °C 32.2 °F /  0.1 °C 30.08in /  1018.5hPa NE 2.3mph /  3.7km/h   89% 0.00in /  0mm WeatherDisplay:10.37 W/m2 SCT
06:49 35.0 °F /  1.7 °C 32.1 °F /  0.1 °C 30.08in /  1018.5hPa NW 1.2mph /  1.9km/h   89% 0.00in /  0mm WeatherDisplay:10.37 W/m2 SCT
07:00 34.7 °F /  1.5 °C 31.8 °F /  -0.1 °C 30.08in /  1018.5hPa NE 1.2mph /  1.9km/h 1.2mph /  1.9km/h 89% 0.00in /  0mm WeatherDisplay:10.37 W/m2 SCT
07:05 34.6 °F /  1.4 °C 31.6 °F /  -0.2 °C 30.09in /  1018.8hPa Calm   1.0mph /  1.6km/h 89% 0.00in /  0mm WeatherDisplay:10.37 W/m2 SCT
07:10 34.4 °F /  1.3 °C 31.5 °F /  -0.3 °C 30.08in /  1018.5hPa Calm     89% 0.00in /  0mm WeatherDisplay:10.37 W/m2 SCT
07:15 34.1 °F /  1.2 °C 31.2 °F /  -0.4 °C 30.09in /  1018.8hPa Calm     89% 0.00in /  0mm WeatherDisplay:10.37 W/m2 -RA
07:20 34.0 °F /  1.1 °C 31.1 °F /  -0.5 °C 30.10in /  1019.2hPa SSW 1.2mph /  1.9km/h   89% 0.00in /  0mm WeatherDisplay:10.37 W/m2 -RA
07:25 33.8 °F /  1 °C 30.9 °F /  -0.6 °C 30.10in /  1019.2hPa NE 1.2mph /  1.9km/h   89% 0.00in /  0mm WeatherDisplay:10.37 W/m2 -RA
07:30 33.6 °F /  0.9 °C 31.0 °F /  -0.6 °C 30.11in /  1019.5hPa ENE 1.2mph /  1.9km/h   90% 0.00in /  0mm WeatherDisplay:10.37 W/m2 -RA
07:35 33.5 °F /  0.8 °C 30.9 °F /  -0.6 °C 30.10in /  1019.2hPa SE 1.2mph /  1.9km/h   90% 0.00in /  0mm WeatherDisplay:10.37 W/m2 -RA
07:40 33.5 °F /  0.8 °C 30.9 °F /  -0.6 °C 30.10in /  1019.2hPa SE 1.2mph /  1.9km/h   90% 0.00in /  0mm WeatherDisplay:10.37 W/m2 -RA
07:45 33.3 °F /  0.7 °C 30.7 °F /  -0.7 °C 30.10in /  1019.2hPa SE 1.2mph /  1.9km/h   90% 0.00in /  0mm WeatherDisplay:10.37 W/m2 -RA
07:50 33.3 °F /  0.7 °C 30.7 °F /  -0.7 °C 30.10in /  1019.2hPa SE 1.2mph /  1.9km/h   90% 0.00in /  0mm WeatherDisplay:10.37 W/m2 -RA
07:55 33.2 °F /  0.7 °C 30.6 °F /  -0.8 °C 30.09in /  1018.8hPa SSW 2.3mph /  3.7km/h   90% 0.00in /  0mm WeatherDisplay:10.37 W/m2 -RA
08:00 33.2 °F /  0.7 °C 30.6 °F /  -0.8 °C 30.09in /  1018.8hPa WSW 2.3mph /  3.7km/h   90% 0.00in /  0mm WeatherDisplay:10.37 W/m2 -RA
08:11 33.2 °F /  0.7 °C 30.9 °F /  -0.6 °C 30.10in /  1019.2hPa NW 1.2mph /  1.9km/h 1.2mph /  1.9km/h 91% 0.00in /  0mm WeatherDisplay:10.37 W/m2 -RA
08:16 33.1 °F /  0.6 °C 30.8 °F /  -0.7 °C 30.10in /  1019.2hPa WNW 1.2mph /  1.9km/h 1.2mph /  1.9km/h 91% 0.00in /  0mm WeatherDisplay:10.37 W/m2 -RA
08:21 33.1 °F /  0.6 °C 30.8 °F /  -0.7 °C 30.10in /  1019.2hPa WNW 1.2mph /  1.9km/h 1.2mph /  1.9km/h 91% 0.00in /  0mm WeatherDisplay:10.37 W/m2 -RA
08:26 33.1 °F /  0.6 °C 30.8 °F /  -0.7 °C 30.10in /  1019.2hPa East 1.2mph /  1.9km/h   91% 0.00in /  0mm WeatherDisplay:10.37 W/m2 -RA
08:31 33.1 °F /  0.6 °C 30.8 °F /  -0.7 °C 30.09in /  1018.8hPa ESE 3.5mph /  5.6km/h 3.5mph /  5.6km/h 91% 0.00in /  0mm WeatherDisplay:10.37 W/m2 -RA
08:36 33.1 °F /  0.6 °C 30.8 °F /  -0.7 °C 30.11in /  1019.5hPa South 3.5mph /  5.6km/h 3.5mph /  5.6km/h 91% 0.00in /  0mm WeatherDisplay:10.37 W/m2 -RA
08:41 33.1 °F /  0.6 °C 30.8 °F /  -0.7 °C 30.10in /  1019.2hPa SSW 2.3mph /  3.7km/h 2.3mph /  3.7km/h 91% 0.00in /  0mm WeatherDisplay:10.37 W/m2 -RA
08:46 33.1 °F /  0.6 °C 30.8 °F /  -0.7 °C 30.09in /  1018.8hPa WNW 2.3mph /  3.7km/h   91% 0.01in /  0.25mm WeatherDisplay:10.37 W/m2 -RA
08:56 33.1 °F /  0.6 °C 30.8 °F /  -0.7 °C 30.10in /  1019.2hPa ESE 2.3mph /  3.7km/h   91% 0.01in /  0.25mm WeatherDisplay:10.37 W/m2 -SN
09:01 33.0 °F /  0.6 °C 30.7 °F /  -0.7 °C 30.09in /  1018.8hPa ENE 1.2mph /  1.9km/h   91% 0.01in /  0.25mm WeatherDisplay:10.37 W/m2 -SN
09:06 33.0 °F /  0.6 °C 30.7 °F /  -0.7 °C 30.10in /  1019.2hPa East 1.2mph /  1.9km/h 1.2mph /  1.9km/h 91% 0.01in /  0.25mm WeatherDisplay:10.37 W/m2 -SN
09:11 33.1 °F /  0.6 °C 30.8 °F /  -0.7 °C 30.11in /  1019.5hPa ESE 1.2mph /  1.9km/h   91% 0.01in /  0.25mm WeatherDisplay:10.37 W/m2 -SN
09:16 33.0 °F /  0.6 °C 30.7 °F /  -0.7 °C 30.10in /  1019.2hPa East 1.2mph /  1.9km/h   91% 0.01in /  0.25mm WeatherDisplay:10.37 W/m2 -SN
09:31 32.9 °F /  0.5 °C 30.6 °F /  -0.8 °C 30.11in /  1019.5hPa Calm     91% 0.01in /  0.25mm WeatherDisplay:10.37 W/m2 -SN
09:37 32.9 °F /  0.5 °C 30.6 °F /  -0.8 °C 30.10in /  1019.2hPa Calm     91% 0.01in /  0.25mm WeatherDisplay:10.37 W/m2 -SN
09:42 32.9 °F /  0.5 °C 30.6 °F /  -0.8 °C 30.10in /  1019.2hPa West 1.2mph /  1.9km/h 1.2mph /  1.9km/h 91% 0.01in /  0.25mm WeatherDisplay:10.37 W/m2 -SN
09:47 32.9 °F /  0.5 °C 30.6 °F /  -0.8 °C 30.12in /  1019.9hPa WSW 1.2mph /  1.9km/h   91% 0.00in /  0mm WeatherDisplay:10.37 W/m2 -SN
09:52 32.9 °F /  0.5 °C 30.6 °F /  -0.8 °C 30.12in /  1019.9hPa WSW 1.2mph /  1.9km/h   91% 0.00in /  0mm WeatherDisplay:10.37 W/m2 -SN
09:57 32.9 °F /  0.5 °C 30.6 °F /  -0.8 °C 30.10in /  1019.2hPa WSW 1.2mph /  1.9km/h   91% 0.00in /  0mm WeatherDisplay:10.37 W/m2 -SN
10:02 32.9 °F /  0.5 °C 30.6 °F /  -0.8 °C 30.10in /  1019.2hPa West 1.2mph /  1.9km/h   91% 0.00in /  0mm WeatherDisplay:10.37 W/m2 -SN
10:07 32.9 °F /  0.5 °C 30.6 °F /  -0.8 °C 30.10in /  1019.2hPa North 1.2mph /  1.9km/h   91% 0.00in /  0mm WeatherDisplay:10.37 W/m2 -SN
10:12 32.9 °F /  0.5 °C 30.6 °F /  -0.8 °C 30.11in /  1019.5hPa NNE 1.2mph /  1.9km/h 1.2mph /  1.9km/h 91% 0.00in /  0mm WeatherDisplay:10.37 W/m2 -SN
10:17 32.9 °F /  0.5 °C 30.6 °F /  -0.8 °C 30.10in /  1019.2hPa East 1.2mph /  1.9km/h   91% 0.00in /  0mm WeatherDisplay:10.37 W/m2 OVC
10:22 32.9 °F /  0.5 °C 30.6 °F /  -0.8 °C 30.10in /  1019.2hPa East 1.2mph /  1.9km/h   91% 0.00in /  0mm WeatherDisplay:10.37 W/m2 OVC
10:27 32.9 °F /  0.5 °C 30.6 °F /  -0.8 °C 30.11in /  1019.5hPa East 1.2mph /  1.9km/h   91% 0.00in /  0mm WeatherDisplay:10.37 W/m2 OVC
10:38 32.9 °F /  0.5 °C 30.8 °F /  -0.7 °C 30.11in /  1019.5hPa Calm   0.2mph /  0.3km/h 92% 0.00in /  0mm WeatherDisplay:10.37 W/m2 OVC
10:43 32.9 °F /  0.5 °C 30.8 °F /  -0.7 °C 30.11in /  1019.5hPa ESE 1.2mph /  1.9km/h   92% 0.00in /  0mm WeatherDisplay:10.37 W/m2 OVC
10:48 32.9 °F /  0.5 °C 30.8 °F /  -0.7 °C 30.12in /  1019.9hPa ESE 1.2mph /  1.9km/h   92% 0.00in /  0mm WeatherDisplay:10.37 W/m2 OVC
10:53 32.9 °F /  0.5 °C 30.8 °F /  -0.7 °C 30.12in /  1019.9hPa Calm     92% 0.00in /  0mm WeatherDisplay:10.37 W/m2 OVC
10:58 32.9 °F /  0.5 °C 30.8 °F /  -0.7 °C 30.12in /  1019.9hPa Calm     92% 0.00in /  0mm WeatherDisplay:10.37 W/m2 OVC
11:03 32.9 °F /  0.5 °C 30.8 °F /  -0.7 °C 30.10in /  1019.2hPa ESE 1.2mph /  1.9km/h   92% 0.00in /  0mm WeatherDisplay:10.37 W/m2 -SN
11:08 32.9 °F /  0.5 °C 30.8 °F /  -0.7 °C 30.10in /  1019.2hPa ESE 1.2mph /  1.9km/h   92% 0.00in /  0mm WeatherDisplay:10.37 W/m2 -SN
11:13 32.9 °F /  0.5 °C 30.8 °F /  -0.7 °C 30.09in /  1018.8hPa East 1.2mph /  1.9km/h   92% 0.00in /  0mm WeatherDisplay:10.37 W/m2 -SN
11:23 32.9 °F /  0.5 °C 30.8 °F /  -0.7 °C 30.09in /  1018.8hPa East 3.5mph /  5.6km/h   92% 0.00in /  0mm WeatherDisplay:10.37 W/m2 -SN
11:28 32.9 °F /  0.5 °C 30.8 °F /  -0.7 °C 30.10in /  1019.2hPa NNE 3.5mph /  5.6km/h   92% 0.00in /  0mm WeatherDisplay:10.37 W/m2 -SN
11:33 32.9 °F /  0.5 °C 30.8 °F /  -0.7 °C 30.11in /  1019.5hPa West 1.2mph /  1.9km/h   92% 0.00in /  0mm WeatherDisplay:10.37 W/m2 -SN
11:39 32.8 °F /  0.4 °C 30.7 °F /  -0.7 °C 30.11in /  1019.5hPa SSW 1.2mph /  1.9km/h   92% 0.00in /  0mm WeatherDisplay:10.37 W/m2 -SN
11:44 32.8 °F /  0.4 °C 30.7 °F /  -0.7 °C 30.11in /  1019.5hPa Calm     92% 0.00in /  0mm WeatherDisplay:10.37 W/m2 -SN
11:49 32.8 °F /  0.4 °C 30.7 °F /  -0.7 °C 30.11in /  1019.5hPa South 1.2mph /  1.9km/h   92% 0.00in /  0mm WeatherDisplay:10.37 W/m2 OVC
11:54 32.8 °F /  0.4 °C 30.7 °F /  -0.7 °C 30.11in /  1019.5hPa South 1.2mph /  1.9km/h   92% 0.00in /  0mm WeatherDisplay:10.37 W/m2 OVC
11:59 32.8 °F /  0.4 °C 30.7 °F /  -0.7 °C 30.11in /  1019.5hPa East 1.2mph /  1.9km/h   92% 0.00in /  0mm WeatherDisplay:10.37 W/m2 OVC
12:04 32.8 °F /  0.4 °C 30.7 °F /  -0.7 °C 30.12in /  1019.9hPa Calm     92% 0.00in /  0mm WeatherDisplay:10.37 W/m2 OVC
12:09 32.8 °F /  0.4 °C 30.7 °F /  -0.7 °C 30.09in /  1018.8hPa Calm     92% 0.00in /  0mm WeatherDisplay:10.37 W/m2 OVC
12:14 32.8 °F /  0.4 °C 30.7 °F /  -0.7 °C 30.09in /  1018.8hPa West 1.2mph /  1.9km/h   92% 0.00in /  0mm WeatherDisplay:10.37 W/m2 OVC
12:19 32.8 °F /  0.4 °C 30.7 °F /  -0.7 °C 30.09in /  1018.8hPa SW 1.2mph /  1.9km/h   92% 0.00in /  0mm WeatherDisplay:10.37 W/m2 OVC
12:24 32.8 °F /  0.4 °C 30.7 °F /  -0.7 °C 30.09in /  1018.8hPa East 1.2mph /  1.9km/h 1.2mph /  1.9km/h 92% 0.00in /  0mm WeatherDisplay:10.37 W/m2 OVC
12:29 32.8 °F /  0.4 °C 30.7 °F /  -0.7 °C 30.08in /  1018.5hPa ENE 1.2mph /  1.9km/h   92% 0.00in /  0mm WeatherDisplay:10.37 W/m2 OVC
12:34 32.8 °F /  0.4 °C 30.7 °F /  -0.7 °C 30.07in /  1018.2hPa NNW 1.2mph /  1.9km/h   92% 0.00in /  0mm WeatherDisplay:10.37 W/m2 OVC
12:39 32.9 °F /  0.5 °C 30.8 °F /  -0.7 °C 30.07in /  1018.2hPa Calm     92% 0.00in /  0mm WeatherDisplay:10.37 W/m2 OVC
12:45 32.9 °F /  0.5 °C 30.8 °F /  -0.7 °C 30.06in /  1017.8hPa Calm   0.1mph /  0.2km/h 92% 0.00in /  0mm WeatherDisplay:10.37 W/m2 OVC
12:50 32.9 °F /  0.5 °C 30.8 °F /  -0.7 °C 30.06in /  1017.8hPa Calm     92% 0.00in /  0mm WeatherDisplay:10.37 W/m2 OVC
12:55 33.0 °F /  0.6 °C 30.9 °F /  -0.6 °C 30.06in /  1017.8hPa Calm     92% 0.00in /  0mm WeatherDisplay:10.37 W/m2 OVC
13:00 33.0 °F /  0.6 °C 30.9 °F /  -0.6 °C 30.06in /  1017.8hPa Calm     92% 0.00in /  0mm WeatherDisplay:10.37 W/m2 OVC
13:05 33.0 °F /  0.6 °C 30.9 °F /  -0.6 °C 30.05in /  1017.5hPa Calm     92% 0.00in /  0mm WeatherDisplay:10.37 W/m2 OVC
13:10 33.1 °F /  0.6 °C 31.0 °F /  -0.6 °C 30.02in /  1016.5hPa Calm     92% 0.00in /  0mm WeatherDisplay:10.37 W/m2 OVC
13:15 33.0 °F /  0.6 °C 30.9 °F /  -0.6 °C 30.03in /  1016.8hPa NE 1.2mph /  1.9km/h   92% 0.00in /  0mm WeatherDisplay:10.37 W/m2 OVC
13:20 33.1 °F /  0.6 °C 31.0 °F /  -0.6 °C 30.04in /  1017.2hPa ENE 1.2mph /  1.9km/h   92% 0.00in /  0mm WeatherDisplay:10.37 W/m2 OVC
13:25 33.1 °F /  0.6 °C 31.0 °F /  -0.6 °C 30.04in /  1017.2hPa East 1.2mph /  1.9km/h   92% 0.00in /  0mm WeatherDisplay:10.37 W/m2 -SN
13:30 33.1 °F /  0.6 °C 31.0 °F /  -0.6 °C 30.02in /  1016.5hPa East 1.2mph /  1.9km/h   92% 0.00in /  0mm WeatherDisplay:10.37 W/m2 -SN
13:34 33.0 °F /  0.6 °C 30.9 °F /  -0.6 °C 30.01in /  1016.1hPa Calm     92% 0.00in /  0mm WeatherDisplay:10.37 W/m2 RA
13:40 33.0 °F /  0.6 °C 30.9 °F /  -0.6 °C 30.01in /  1016.1hPa Calm     92% 0.00in /  0mm WeatherDisplay:10.37 W/m2 -SN
13:44 33.0 °F /  0.6 °C 30.9 °F /  -0.6 °C 30.01in /  1016.1hPa Calm   1.0mph /  1.6km/h 92% 0.00in /  0mm WeatherDisplay:10.37 W/m2
13:46 33.0 °F /  0.6 °C 30.9 °F /  -0.6 °C 30.01in /  1016.1hPa SE 1.2mph /  1.9km/h   92% 0.00in /  0mm WeatherDisplay:10.37 W/m2 -SN
13:51 33.1 °F /  0.6 °C 31.0 °F /  -0.6 °C 30.01in /  1016.1hPa SSW 1.2mph /  1.9km/h   92% 0.00in /  0mm WeatherDisplay:10.37 W/m2 -SN
13:54 33.1 °F /  0.6 °C 31.0 °F /  -0.6 °C 30.01in /  1016.1hPa Calm     92% 0.00in /  0mm WeatherDisplay:10.37 W/m2
14:04 33.0 °F /  0.6 °C 30.9 °F /  -0.6 °C 29.99in /  1015.5hPa Calm     92% 0.00in /  0mm WeatherDisplay:10.37 W/m2
14:06 33.1 °F /  0.6 °C 31.0 °F /  -0.6 °C 29.99in /  1015.5hPa Calm     92% 0.00in /  0mm WeatherDisplay:10.37 W/m2 -RA
14:14 33.0 °F /  0.6 °C 30.9 °F /  -0.6 °C 29.98in /  1015.1hPa Calm     92% 0.00in /  0mm WeatherDisplay:10.37 W/m2
14:24 33.0 °F /  0.6 °C 30.9 °F /  -0.6 °C 29.98in /  1015.1hPa Calm   1.0mph /  1.6km/h 92% 0.01in /  0.25mm WeatherDisplay:10.37 W/m2
14:31 33.0 °F /  0.6 °C 30.9 °F /  -0.6 °C 29.98in /  1015.1hPa SSE 1.2mph /  1.9km/h   92% 0.01in /  0.25mm WeatherDisplay:10.37 W/m2 -RA
14:34 33.0 °F /  0.6 °C 30.9 °F /  -0.6 °C 29.97in /  1014.8hPa Calm     92% 0.00in /  0mm WeatherDisplay:10.37 W/m2
14:36 33.0 °F /  0.6 °C 30.9 °F /  -0.6 °C 29.96in /  1014.4hPa Calm     92% 0.01in /  0.25mm WeatherDisplay:10.37 W/m2 -RA
14:41 33.0 °F /  0.6 °C 30.9 °F /  -0.6 °C 29.97in /  1014.8hPa Calm     92% 0.01in /  0.25mm WeatherDisplay:10.37 W/m2 -RA
14:44 33.0 °F /  0.6 °C 30.9 °F /  -0.6 °C 29.97in /  1014.8hPa Calm     92% 0.00in /  0mm WeatherDisplay:10.37 W/m2
14:46 33.0 °F /  0.6 °C 30.9 °F /  -0.6 °C 29.97in /  1014.8hPa Calm     92% 0.01in /  0.25mm WeatherDisplay:10.37 W/m2 -RA
14:52 32.9 °F /  0.5 °C 30.8 °F /  -0.7 °C 29.97in /  1014.8hPa Calm     92% 0.02in /  0.51mm WeatherDisplay:10.37 W/m2 -RA
14:54 32.9 °F /  0.5 °C 30.8 °F /  -0.7 °C 29.96in /  1014.4hPa Calm     92% 0.01in /  0.25mm WeatherDisplay:10.37 W/m2
14:57 32.9 °F /  0.5 °C 30.8 °F /  -0.7 °C 29.96in /  1014.4hPa Calm     92% 0.02in /  0.51mm WeatherDisplay:10.37 W/m2 -RA
15:02 32.9 °F /  0.5 °C 30.8 °F /  -0.7 °C 29.97in /  1014.8hPa Calm     92% 0.03in /  0.76mm WeatherDisplay:10.37 W/m2 -RA
15:04 32.9 °F /  0.5 °C 30.8 °F /  -0.7 °C 29.97in /  1014.8hPa Calm     92% 0.01in /  0.25mm WeatherDisplay:10.37 W/m2
15:07 32.9 °F /  0.5 °C 30.8 °F /  -0.7 °C 29.97in /  1014.8hPa Calm     92% 0.04in /  1.02mm WeatherDisplay:10.37 W/m2 -RA
15:18 33.0 °F /  0.6 °C 30.9 °F /  -0.6 °C 30.01in /  1016.1hPa Calm     92% 0.05in /  1.27mm WeatherDisplay:10.37 W/m2 RA
15:23 32.9 °F /  0.5 °C 30.8 °F /  -0.7 °C 30.00in /  1015.8hPa Calm     92% 0.06in /  1.52mm WeatherDisplay:10.37 W/m2 -RA
15:28 32.9 °F /  0.5 °C 30.8 °F /  -0.7 °C 30.00in /  1015.8hPa Calm     92% 0.05in /  1.27mm WeatherDisplay:10.37 W/m2 -RA
15:33 32.9 °F /  0.5 °C 30.8 °F /  -0.7 °C 30.00in /  1015.8hPa Calm     92% 0.06in /  1.52mm WeatherDisplay:10.37 W/m2 -RA
15:38 32.8 °F /  0.4 °C 30.7 °F /  -0.7 °C 29.99in /  1015.5hPa SE 1.2mph /  1.9km/h   92% 0.06in /  1.52mm WeatherDisplay:10.37 W/m2 -RA
15:43 32.8 °F /  0.4 °C 30.7 °F /  -0.7 °C 30.00in /  1015.8hPa South 1.2mph /  1.9km/h   92% 0.07in /  1.78mm WeatherDisplay:10.37 W/m2 -RA
15:48 32.8 °F /  0.4 °C 30.7 °F /  -0.7 °C 30.01in /  1016.1hPa Calm     92% 0.07in /  1.78mm WeatherDisplay:10.37 W/m2 -RA
15:53 32.8 °F /  0.4 °C 30.7 °F /  -0.7 °C 30.02in /  1016.5hPa Calm     92% 0.07in /  1.78mm WeatherDisplay:10.37 W/m2 -RA
15:59 32.8 °F /  0.4 °C 30.7 °F /  -0.7 °C 30.00in /  1015.8hPa South 1.2mph /  1.9km/h   92% 0.06in /  1.52mm WeatherDisplay:10.37 W/m2 -SN
16:04 32.7 °F /  0.4 °C 30.6 °F /  -0.8 °C 30.00in /  1015.8hPa SW 1.2mph /  1.9km/h   92% 0.05in /  1.27mm WeatherDisplay:10.37 W/m2 -SN
16:09 32.7 °F /  0.4 °C 30.6 °F /  -0.8 °C 30.01in /  1016.1hPa Calm     92% 0.05in /  1.27mm WeatherDisplay:10.37 W/m2 -SN
16:14 32.7 °F /  0.4 °C 30.6 °F /  -0.8 °C 30.01in /  1016.1hPa Calm     92% 0.04in /  1.02mm WeatherDisplay:10.37 W/m2 -SN
16:19 32.7 °F /  0.4 °C 30.6 °F /  -0.8 °C 30.02in /  1016.5hPa Calm     92% 0.04in /  1.02mm WeatherDisplay:10.37 W/m2 -SN
16:24 32.7 °F /  0.4 °C 30.6 °F /  -0.8 °C 29.99in /  1015.5hPa Calm     92% 0.03in /  0.76mm WeatherDisplay:10.37 W/m2 -SN
16:29 32.7 °F /  0.4 °C 30.6 °F /  -0.8 °C 30.00in /  1015.8hPa Calm     92% 0.02in /  0.51mm WeatherDisplay:10.37 W/m2 -SN
16:34 32.7 °F /  0.4 °C 30.6 °F /  -0.8 °C 30.00in /  1015.8hPa Calm     92% 0.02in /  0.51mm WeatherDisplay:10.37 W/m2 -SN
16:39 32.7 °F /  0.4 °C 30.6 °F /  -0.8 °C 30.01in /  1016.1hPa Calm     92% 0.02in /  0.51mm WeatherDisplay:10.37 W/m2 -SN
16:44 32.7 °F /  0.4 °C 30.6 °F /  -0.8 °C 30.00in /  1015.8hPa Calm     92% 0.01in /  0.25mm WeatherDisplay:10.37 W/m2 -SN
16:50 32.7 °F /  0.4 °C 30.6 °F /  -0.8 °C 29.99in /  1015.5hPa Calm     92% 0.01in /  0.25mm WeatherDisplay:10.37 W/m2 -SN
16:55 32.7 °F /  0.4 °C 30.6 °F /  -0.8 °C 30.00in /  1015.8hPa Calm     92% 0.02in /  0.51mm WeatherDisplay:10.37 W/m2 -SN
17:00 32.7 °F /  0.4 °C 30.6 °F /  -0.8 °C 30.00in /  1015.8hPa Calm     92% 0.02in /  0.51mm WeatherDisplay:10.37 W/m2 -SN
17:05 32.7 °F /  0.4 °C 30.6 °F /  -0.8 °C 30.00in /  1015.8hPa Calm     92% 0.02in /  0.51mm WeatherDisplay:10.37 W/m2 -SN
17:10 32.6 °F /  0.3 °C 30.5 °F /  -0.8 °C 30.01in /  1016.1hPa Calm     92% 0.02in /  0.51mm WeatherDisplay:10.37 W/m2 -SN
17:15 32.6 °F /  0.3 °C 30.5 °F /  -0.8 °C 30.01in /  1016.1hPa Calm     92% 0.02in /  0.51mm WeatherDisplay:10.37 W/m2 -SN
17:19 32.6 °F /  0.3 °C 30.5 °F /  -0.8 °C 30.00in /  1015.8hPa Calm     92% 0.01in /  0.25mm WeatherDisplay:10.37 W/m2 -SN
17:25 32.6 °F /  0.3 °C 30.5 °F /  -0.8 °C 30.00in /  1015.8hPa Calm     92% 0.01in /  0.25mm WeatherDisplay:10.37 W/m2 -SN
17:30 32.6 °F /  0.3 °C 30.5 °F /  -0.8 °C 30.00in /  1015.8hPa Calm     92% 0.01in /  0.25mm WeatherDisplay:10.37 W/m2 -SN
17:35 32.6 °F /  0.3 °C 30.5 °F /  -0.8 °C 29.99in /  1015.5hPa Calm     92% 0.00in /  0mm WeatherDisplay:10.37 W/m2 -SN
17:40 32.5 °F /  0.3 °C 30.4 °F /  -0.9 °C 29.98in /  1015.1hPa Calm     92% 0.00in /  0mm WeatherDisplay:10.37 W/m2 -SN
17:45 32.5 °F /  0.3 °C 30.4 °F /  -0.9 °C 29.98in /  1015.1hPa Calm     92% 0.01in /  0.25mm WeatherDisplay:10.37 W/m2 -SN
17:50 32.5 °F /  0.3 °C 30.4 °F /  -0.9 °C 29.97in /  1014.8hPa Calm     92% 0.01in /  0.25mm WeatherDisplay:10.37 W/m2 -SN
17:55 32.5 °F /  0.3 °C 30.4 °F /  -0.9 °C 29.98in /  1015.1hPa Calm     92% 0.01in /  0.25mm WeatherDisplay:10.37 W/m2 -SN
18:00 32.5 °F /  0.3 °C 30.4 °F /  -0.9 °C 29.98in /  1015.1hPa Calm     92% 0.01in /  0.25mm WeatherDisplay:10.37 W/m2 -SN
18:05 32.5 °F /  0.3 °C 30.4 °F /  -0.9 °C 29.99in /  1015.5hPa Calm     92% 0.01in /  0.25mm WeatherDisplay:10.37 W/m2 OVC
18:10 32.5 °F /  0.3 °C 30.4 °F /  -0.9 °C 29.99in /  1015.5hPa Calm     92% 0.01in /  0.25mm WeatherDisplay:10.37 W/m2 OVC
18:15 32.5 °F /  0.3 °C 30.4 °F /  -0.9 °C 30.00in /  1015.8hPa Calm     92% 0.01in /  0.25mm WeatherDisplay:10.37 W/m2 -RA
18:20 32.5 °F /  0.3 °C 30.4 °F /  -0.9 °C 29.99in /  1015.5hPa Calm     92% 0.01in /  0.25mm WeatherDisplay:10.37 W/m2 -RA
18:26 32.5 °F /  0.3 °C 30.4 °F /  -0.9 °C 29.99in /  1015.5hPa Calm     92% 0.01in /  0.25mm WeatherDisplay:10.37 W/m2 -RA
18:36 32.6 °F /  0.3 °C 30.5 °F /  -0.8 °C 30.00in /  1015.8hPa Calm     92% 0.01in /  0.25mm WeatherDisplay:10.37 W/m2 -RA
18:46 32.6 °F /  0.3 °C 30.5 °F /  -0.8 °C 30.01in /  1016.1hPa Calm     92% 0.01in /  0.25mm WeatherDisplay:10.37 W/m2 -SN
19:02 32.6 °F /  0.3 °C 30.5 °F /  -0.8 °C 30.02in /  1016.5hPa Calm     92% 0.00in /  0mm WeatherDisplay:10.37 W/m2 -SN
19:07 32.6 °F /  0.3 °C 30.5 °F /  -0.8 °C 30.02in /  1016.5hPa SSE 1.2mph /  1.9km/h   92% 0.01in /  0.25mm WeatherDisplay:10.37 W/m2 -SN
19:12 32.6 °F /  0.3 °C 30.5 °F /  -0.8 °C 30.02in /  1016.5hPa West 1.2mph /  1.9km/h   92% 0.01in /  0.25mm WeatherDisplay:10.37 W/m2 -SN
19:17 32.6 °F /  0.3 °C 30.5 °F /  -0.8 °C 30.02in /  1016.5hPa Calm     92% 0.01in /  0.25mm WeatherDisplay:10.37 W/m2 -SN
19:22 32.6 °F /  0.3 °C 30.5 °F /  -0.8 °C 30.03in /  1016.8hPa Calm     92% 0.01in /  0.25mm WeatherDisplay:10.37 W/m2 -SN
19:27 32.6 °F /  0.3 °C 30.5 °F /  -0.8 °C 30.03in /  1016.8hPa Calm     92% 0.01in /  0.25mm WeatherDisplay:10.37 W/m2 -SN
19:32 32.6 °F /  0.3 °C 30.5 °F /  -0.8 °C 30.04in /  1017.2hPa Calm     92% 0.01in /  0.25mm WeatherDisplay:10.37 W/m2 -SN
19:37 32.6 °F /  0.3 °C 30.5 °F /  -0.8 °C 30.05in /  1017.5hPa Calm     92% 0.01in /  0.25mm WeatherDisplay:10.37 W/m2 -SN
19:42 32.6 °F /  0.3 °C 30.5 °F /  -0.8 °C 30.03in /  1016.8hPa Calm     92% 0.01in /  0.25mm WeatherDisplay:10.37 W/m2 -SN
19:47 32.6 °F /  0.3 °C 30.5 °F /  -0.8 °C 30.02in /  1016.5hPa Calm     92% 0.01in /  0.25mm WeatherDisplay:10.37 W/m2 -SN
19:52 32.6 °F /  0.3 °C 30.5 °F /  -0.8 °C 30.03in /  1016.8hPa Calm     92% 0.01in /  0.25mm WeatherDisplay:10.37 W/m2 -SN
19:57 32.6 °F /  0.3 °C 30.8 °F /  -0.7 °C 30.04in /  1017.2hPa Calm     93% 0.01in /  0.25mm WeatherDisplay:10.37 W/m2 -SN
20:02 32.6 °F /  0.3 °C 30.8 °F /  -0.7 °C 30.02in /  1016.5hPa Calm     93% 0.01in /  0.25mm WeatherDisplay:10.37 W/m2 -SN
20:08 32.6 °F /  0.3 °C 30.5 °F /  -0.8 °C 30.04in /  1017.2hPa Calm     92% 0.00in /  0mm WeatherDisplay:10.37 W/m2 -SN
20:13 32.5 °F /  0.3 °C 30.7 °F /  -0.7 °C 30.03in /  1016.8hPa Calm     93% 0.00in /  0mm WeatherDisplay:10.37 W/m2 -SN
20:18 32.5 °F /  0.3 °C 30.4 °F /  -0.9 °C 30.02in /  1016.5hPa Calm     92% 0.00in /  0mm WeatherDisplay:10.37 W/m2 -SN
20:23 32.5 °F /  0.3 °C 30.7 °F /  -0.7 °C 30.03in /  1016.8hPa Calm     93% 0.00in /  0mm WeatherDisplay:10.37 W/m2 -SN
20:28 32.5 °F /  0.3 °C 30.4 °F /  -0.9 °C 30.01in /  1016.1hPa Calm     92% 0.00in /  0mm WeatherDisplay:10.37 W/m2 -SN
20:33 32.5 °F /  0.3 °C 30.7 °F /  -0.7 °C 30.00in /  1015.8hPa Calm     93% 0.00in /  0mm WeatherDisplay:10.37 W/m2 -SN
20:38 32.5 °F /  0.3 °C 30.7 °F /  -0.7 °C 30.00in /  1015.8hPa Calm     93% 0.01in /  0.25mm WeatherDisplay:10.37 W/m2 -SN
20:43 32.4 °F /  0.2 °C 30.6 °F /  -0.8 °C 30.00in /  1015.8hPa Calm     93% 0.01in /  0.25mm WeatherDisplay:10.37 W/m2 -SN
20:48 32.4 °F /  0.2 °C 30.6 °F /  -0.8 °C 30.00in /  1015.8hPa Calm     93% 0.01in /  0.25mm WeatherDisplay:10.37 W/m2 -SN
20:53 32.4 °F /  0.2 °C 30.6 °F /  -0.8 °C 30.00in /  1015.8hPa Calm     93% 0.01in /  0.25mm WeatherDisplay:10.37 W/m2 -SN
20:58 32.4 °F /  0.2 °C 30.6 °F /  -0.8 °C 30.00in /  1015.8hPa Calm     93% 0.01in /  0.25mm WeatherDisplay:10.37 W/m2 -SN
21:03 32.4 °F /  0.2 °C 30.6 °F /  -0.8 °C 30.00in /  1015.8hPa Calm     93% 0.01in /  0.25mm WeatherDisplay:10.37 W/m2 -SN
21:09 32.5 °F /  0.3 °C 30.7 °F /  -0.7 °C 30.01in /  1016.1hPa Calm     93% 0.01in /  0.25mm WeatherDisplay:10.37 W/m2 -SN
21:14 32.5 °F /  0.3 °C 30.7 °F /  -0.7 °C 30.00in /  1015.8hPa Calm     93% 0.01in /  0.25mm WeatherDisplay:10.37 W/m2 -SN
21:19 32.5 °F /  0.3 °C 30.7 °F /  -0.7 °C 29.99in /  1015.5hPa Calm     93% 0.01in /  0.25mm WeatherDisplay:10.37 W/m2 -SN
21:24 32.5 °F /  0.3 °C 30.7 °F /  -0.7 °C 29.99in /  1015.5hPa Calm     93% 0.01in /  0.25mm WeatherDisplay:10.37 W/m2 -SN
21:29 32.5 °F /  0.3 °C 30.7 °F /  -0.7 °C 29.99in /  1015.5hPa Calm     93% 0.01in /  0.25mm WeatherDisplay:10.37 W/m2 -SN
21:34 32.5 °F /  0.3 °C 30.7 °F /  -0.7 °C 29.99in /  1015.5hPa Calm     93% 0.01in /  0.25mm WeatherDisplay:10.37 W/m2 -SN
21:39 32.5 °F /  0.3 °C 30.7 °F /  -0.7 °C 29.99in /  1015.5hPa Calm     93% 0.00in /  0mm WeatherDisplay:10.37 W/m2 -SN
21:44 32.5 °F /  0.3 °C 30.7 °F /  -0.7 °C 29.98in /  1015.1hPa Calm     93% 0.00in /  0mm WeatherDisplay:10.37 W/m2 -SN
21:49 32.5 °F /  0.3 °C 30.7 °F /  -0.7 °C 29.99in /  1015.5hPa Calm     93% 0.00in /  0mm WeatherDisplay:10.37 W/m2 -SN
21:54 32.6 °F /  0.3 °C 30.8 °F /  -0.7 °C 30.00in /  1015.8hPa Calm     93% 0.00in /  0mm WeatherDisplay:10.37 W/m2 -SN
21:59 32.7 °F /  0.4 °C 30.9 °F /  -0.6 °C 30.01in /  1016.1hPa Calm     93% 0.00in /  0mm WeatherDisplay:10.37 W/m2 -SN
22:05 32.7 °F /  0.4 °C 30.9 °F /  -0.6 °C 30.01in /  1016.1hPa Calm     93% 0.00in /  0mm WeatherDisplay:10.37 W/m2 -SN
22:10 32.7 °F /  0.4 °C 30.9 °F /  -0.6 °C 30.02in /  1016.5hPa Calm     93% 0.00in /  0mm WeatherDisplay:10.37 W/m2 -SN
22:16 32.7 °F /  0.4 °C 30.9 °F /  -0.6 °C 30.03in /  1016.8hPa Calm     93% 0.00in /  0mm WeatherDisplay:10.37 W/m2 -SN
22:22 32.6 °F /  0.3 °C 30.8 °F /  -0.7 °C 30.04in /  1017.2hPa Calm     93% 0.00in /  0mm WeatherDisplay:10.37 W/m2 -SN
22:27 32.6 °F /  0.3 °C 30.8 °F /  -0.7 °C 30.04in /  1017.2hPa Calm     93% 0.01in /  0.25mm WeatherDisplay:10.37 W/m2 -SN
22:29 32.6 °F /  0.3 °C 30.8 °F /  -0.7 °C 30.04in /  1017.2hPa Calm     93% 0.01in /  0.25mm WeatherDisplay:10.37 W/m2 -SN
22:33 32.6 °F /  0.3 °C 30.8 °F /  -0.7 °C 30.04in /  1017.2hPa Calm     93% 0.01in /  0.25mm WeatherDisplay:10.37 W/m2 -SN
22:38 32.6 °F /  0.3 °C 30.8 °F /  -0.7 °C 30.04in /  1017.2hPa Calm     93% 0.01in /  0.25mm WeatherDisplay:10.37 W/m2 -SN
22:43 32.6 °F /  0.3 °C 30.8 °F /  -0.7 °C 30.04in /  1017.2hPa Calm     93% 0.01in /  0.25mm WeatherDisplay:10.37 W/m2 -SN
22:49 32.6 °F /  0.3 °C 30.8 °F /  -0.7 °C 30.05in /  1017.5hPa Calm     93% 0.01in /  0.25mm WeatherDisplay:10.37 W/m2 -SN
22:54 32.6 °F /  0.3 °C 30.8 °F /  -0.7 °C 30.05in /  1017.5hPa Calm     93% 0.01in /  0.25mm WeatherDisplay:10.37 W/m2 -SN
22:59 32.6 °F /  0.3 °C 30.8 °F /  -0.7 °C 30.04in /  1017.2hPa Calm     93% 0.01in /  0.25mm WeatherDisplay:10.37 W/m2 -SN
23:04 32.6 °F /  0.3 °C 30.8 °F /  -0.7 °C 30.03in /  1016.8hPa Calm     93% 0.01in /  0.25mm WeatherDisplay:10.37 W/m2 -SN
23:09 32.6 °F /  0.3 °C 30.8 °F /  -0.7 °C 30.03in /  1016.8hPa Calm     93% 0.01in /  0.25mm WeatherDisplay:10.37 W/m2 -SN
23:14 32.6 °F /  0.3 °C 30.8 °F /  -0.7 °C 30.05in /  1017.5hPa Calm     93% 0.01in /  0.25mm WeatherDisplay:10.37 W/m2 -SN
23:19 32.5 °F /  0.3 °C 30.7 °F /  -0.7 °C 30.02in /  1016.5hPa Calm     93% 0.01in /  0.25mm WeatherDisplay:10.37 W/m2 -SN
23:24 32.5 °F /  0.3 °C 30.7 °F /  -0.7 °C 30.04in /  1017.2hPa Calm     93% 0.00in /  0mm WeatherDisplay:10.37 W/m2 -SN
23:29 32.5 °F /  0.3 °C 30.7 °F /  -0.7 °C 30.03in /  1016.8hPa Calm     93% 0.00in /  0mm WeatherDisplay:10.37 W/m2 -SN
23:34 32.5 °F /  0.3 °C 30.7 °F /  -0.7 °C 30.03in /  1016.8hPa Calm     93% 0.00in /  0mm WeatherDisplay:10.37 W/m2 -SN
23:39 32.5 °F /  0.3 °C 30.7 °F /  -0.7 °C 30.00in /  1015.8hPa Calm     93% 0.00in /  0mm WeatherDisplay:10.37 W/m2 -SN
23:44 32.4 °F /  0.2 °C 30.6 °F /  -0.8 °C 30.00in /  1015.8hPa Calm     93% 0.00in /  0mm WeatherDisplay:10.37 W/m2 -SN
23:50 32.5 °F /  0.3 °C 30.7 °F /  -0.7 °C 29.99in /  1015.5hPa Calm     93% 0.00in /  0mm WeatherDisplay:10.37 W/m2 -SN
23:55 32.4 °F /  0.2 °C 30.6 °F /  -0.8 °C 29.99in /  1015.5hPa Calm     93% 0.00in /  0mm WeatherDisplay:10.37 W/m2 -SN
Piedmont Bend
Compliments of Weather Underground - 4 mb